Time;durP1;ratioP1;P1;durP2;ratioP2;P2;SDS_P1;SDS_P2;PMS_P1;PMS_P2;Temp;Humidity;BMP_temperature;BMP_pressure;BME280_temperature;BME280_humidity;BME280_pressure;Samples;Min_cycle;Max_cycle;Signal;HPM_P1;HPM_P2
2022/08/03 00:01:22;;;;;;;6.90;1.77;;;21.10;98.10;;;;;;5065384;28;20048;-44
2022/08/03 00:03:49;;;;;;;10.48;2.33;;;21.10;98.00;;;;;;5071714;28;20076;-44
2022/08/03 00:06:15;;;;;;;9.35;1.80;;;21.10;98.30;;;;;;5068938;28;20115;-42
2022/08/03 00:08:42;;;;;;;10.23;1.70;;;21.10;98.40;;;;;;5052623;28;20536;-44
2022/08/03 00:11:09;;;;;;;10.02;1.52;;;21.10;98.50;;;;;;5057168;28;20139;-43
2022/08/03 00:13:36;;;;;;;8.05;1.70;;;21.10;98.50;;;;;;5065740;28;20135;-43
2022/08/03 00:16:05;;;;;;;9.25;1.70;;;21.10;98.50;;;;;;5072673;28;20080;-43
2022/08/03 00:18:31;;;;;;;9.02;1.63;;;21.10;98.80;;;;;;5072334;28;20123;-43
2022/08/03 00:20:58;;;;;;;7.32;1.73;;;21.00;98.50;;;;;;5071849;28;20552;-43
2022/08/03 00:23:25;;;;;;;7.10;1.50;;;21.00;98.60;;;;;;5050379;28;20394;-42
2022/08/03 00:25:52;;;;;;;5.10;1.50;;;21.00;98.70;;;;;;5051869;28;20128;-43
2022/08/03 00:28:18;;;;;;;7.35;1.60;;;21.00;98.70;;;;;;5051287;28;20048;-43
2022/08/03 00:30:45;;;;;;;11.75;1.85;;;21.00;98.80;;;;;;5065990;28;20086;-43
2022/08/03 00:33:13;;;;;;;8.65;1.55;;;20.90;98.80;;;;;;5057879;28;20130;-43
2022/08/03 00:35:40;;;;;;;9.85;1.63;;;20.90;98.80;;;;;;5052109;28;20398;-43
2022/08/03 00:38:07;;;;;;;9.95;2.10;;;20.90;98.90;;;;;;5051265;28;20045;-43
2022/08/03 00:40:34;;;;;;;10.63;2.10;;;20.90;99.20;;;;;;5052272;28;20124;-44
2022/08/03 00:43:01;;;;;;;10.68;1.92;;;20.90;99.30;;;;;;5065146;28;20139;-44
2022/08/03 00:45:30;;;;;;;8.55;1.75;;;20.90;99.30;;;;;;5071966;28;20558;-43
2022/08/03 00:47:56;;;;;;;7.50;1.88;;;20.80;99.50;;;;;;5071224;28;20076;-44
2022/08/03 00:50:26;;;;;;;9.00;1.73;;;20.80;99.20;;;;;;5071117;28;20083;-44
2022/08/03 00:52:54;;;;;;;8.90;1.90;;;20.80;99.20;;;;;;5033764;28;21508;-44
2022/08/03 00:55:20;;;;;;;9.05;1.90;;;20.80;99.20;;;;;;5051992;28;20099;-44
2022/08/03 00:57:47;;;;;;;5.72;1.58;;;20.80;98.90;;;;;;5063473;28;20059;-44
2022/08/03 01:00:16;;;;;;;11.07;1.70;;;20.80;98.90;;;;;;5058103;28;20124;-45
2022/08/03 01:02:42;;;;;;;8.55;1.67;;;20.70;99.20;;;;;;5050778;28;20132;-45
2022/08/03 01:05:09;;;;;;;11.05;2.00;;;20.70;99.30;;;;;;5051893;28;20069;-43
2022/08/03 01:07:52;;;;;;;9.25;2.20;;;20.70;99.40;;;;;;5051611;28;20076;-43
2022/08/03 01:10:24;;;;;;;11.27;2.38;;;20.70;99.40;;;;;;5051367;28;20384;-43
2022/08/03 01:12:56;;;;;;;13.30;2.50;;;20.60;99.50;;;;;;5057377;28;20131;-43
2022/08/03 01:15:25;;;;;;;5.15;1.85;;;20.60;99.90;;;;;;5052553;28;20048;-43
2022/08/03 01:17:56;;;;;;;6.72;2.10;;;20.50;99.60;;;;;;5050522;28;20053;-43
2022/08/03 01:20:23;;;;;;;11.07;2.30;;;20.50;99.90;;;;;;5050973;28;20415;-44
2022/08/03 01:23:18;;;;;;;11.80;2.63;;;20.50;99.90;;;;;;5050553;28;20132;-43
2022/08/03 01:26:05;;;;;;;8.63;2.72;;;20.40;99.90;;;;;;5055849;28;20044;-43
2022/08/03 01:28:46;;;;;;;11.85;2.53;;;20.40;99.90;;;;;;5071885;28;20054;-42
2022/08/03 01:31:15;;;;;;;10.65;2.45;;;20.40;99.90;;;;;;5071015;28;20049;-44
2022/08/03 01:33:43;;;;;;;8.45;2.05;;;20.40;99.90;;;;;;5068624;28;20128;-43
2022/08/03 01:36:11;;;;;;;6.95;2.10;;;20.30;99.90;;;;;;5051482;28;20067;-43
2022/08/03 01:38:41;;;;;;;12.35;2.45;;;20.30;99.90;;;;;;5051786;28;20045;-43
2022/08/03 01:41:10;;;;;;;12.57;2.10;;;20.30;99.90;;;;;;5055030;28;20377;-43
2022/08/03 01:43:37;;;;;;;6.93;1.80;;;20.20;99.90;;;;;;5054308;28;20136;-44
2022/08/03 01:46:04;;;;;;;9.40;2.08;;;20.20;99.90;;;;;;5054155;28;20128;-43
2022/08/03 01:48:32;;;;;;;10.65;2.28;;;20.20;99.90;;;;;;5054212;28;20491;-43
2022/08/03 01:50:59;;;;;;;13.38;2.67;;;20.20;99.90;;;;;;5052201;28;20495;-43
2022/08/03 01:53:26;;;;;;;9.55;2.40;;;20.10;99.90;;;;;;5054952;28;20460;-43
2022/08/03 01:55:54;;;;;;;8.55;2.08;;;20.10;99.90;;;;;;5063214;28;20460;-44
2022/08/03 01:58:20;;;;;;;8.88;2.55;;;20.10;99.90;;;;;;5064668;28;20098;-43
2022/08/03 02:00:47;;;;;;;11.93;2.90;;;20.00;99.90;;;;;;5075054;28;20131;-43
2022/08/03 02:03:14;;;;;;;8.73;2.67;;;20.00;99.90;;;;;;5073860;28;20052;-43
2022/08/03 02:05:42;;;;;;;10.88;2.35;;;20.10;99.90;;;;;;5073813;28;20041;-43
2022/08/03 02:08:10;;;;;;;11.23;2.63;;;20.00;99.90;;;;;;5074883;28;20131;-43
2022/08/03 02:10:36;;;;;;;11.57;2.50;;;19.90;99.90;;;;;;5052138;28;20492;-42
2022/08/03 02:13:05;;;;;;;8.13;2.33;;;19.90;99.90;;;;;;5059467;28;20378;-43
2022/08/03 02:15:31;;;;;;;11.20;2.50;;;19.90;99.90;;;;;;5065870;28;20049;-43
2022/08/03 02:17:58;;;;;;;9.75;2.63;;;19.90;99.90;;;;;;5054839;28;20049;-43
2022/08/03 02:20:25;;;;;;;8.77;2.28;;;19.90;99.90;;;;;;5052924;28;20132;-44
2022/08/03 02:22:53;;;;;;;10.95;2.95;;;19.90;99.90;;;;;;5053549;28;20091;-42
2022/08/03 02:25:20;;;;;;;7.90;2.28;;;19.90;99.90;;;;;;5053329;28;20135;-44
2022/08/03 02:27:50;;;;;;;10.07;2.30;;;19.80;99.90;;;;;;5054772;28;20124;-43
2022/08/03 02:30:17;;;;;;;9.90;2.00;;;19.80;99.90;;;;;;5053515;28;20045;-43
2022/08/03 02:32:46;;;;;;;12.55;2.72;;;19.80;99.90;;;;;;5053038;28;20387;-44
2022/08/03 02:35:13;;;;;;;10.63;2.30;;;19.80;99.90;;;;;;5053519;28;20083;-43
2022/08/03 02:37:42;;;;;;;12.07;2.80;;;19.70;99.90;;;;;;5054287;28;20072;-43
2022/08/03 02:40:11;;;;;;;8.88;2.35;;;19.80;99.90;;;;;;5054509;28;20131;-43
2022/08/03 02:42:38;;;;;;;13.68;2.25;;;19.80;99.90;;;;;;5061946;28;20040;-44
2022/08/03 02:45:06;;;;;;;9.85;2.10;;;19.80;99.90;;;;;;5073672;28;20132;-43
2022/08/03 02:47:33;;;;;;;11.13;2.25;;;19.70;99.90;;;;;;5052833;28;20412;-43
2022/08/03 02:50:00;;;;;;;9.43;2.90;;;19.70;99.90;;;;;;5052335;28;20140;-43
2022/08/03 02:52:28;;;;;;;11.70;2.85;;;19.70;99.90;;;;;;5052747;28;20059;-43
2022/08/03 02:54:56;;;;;;;10.68;2.70;;;19.70;99.90;;;;;;5057885;28;20514;-43
2022/08/03 02:57:24;;;;;;;13.07;3.03;;;19.70;99.90;;;;;;5073351;28;20155;-43
2022/08/03 02:59:51;;;;;;;8.98;2.72;;;19.60;99.90;;;;;;5072943;28;20543;-43
2022/08/03 03:02:18;;;;;;;8.32;2.85;;;19.60;99.90;;;;;;5072859;28;20052;-44
2022/08/03 03:04:45;;;;;;;10.13;3.35;;;19.50;99.90;;;;;;5072878;28;20135;-42
2022/08/03 03:07:12;;;;;;;8.68;2.50;;;19.50;99.90;;;;;;5073779;28;20536;-43
2022/08/03 03:09:39;;;;;;;9.07;3.13;;;19.50;99.90;;;;;;5064768;28;20051;-43
2022/08/03 03:12:07;;;;;;;10.32;2.60;;;19.50;99.90;;;;;;5063138;28;20064;-43
2022/08/03 03:14:35;;;;;;;16.05;3.45;;;19.40;99.90;;;;;;5069365;28;20080;-43
2022/08/03 03:17:01;;;;;;;11.63;2.92;;;19.40;99.90;;;;;;5073614;28;20123;-42
2022/08/03 03:19:29;;;;;;;8.77;3.13;;;19.40;99.90;;;;;;5057703;28;20087;-44
2022/08/03 03:21:55;;;;;;;10.70;3.20;;;19.40;99.90;;;;;;5052556;28;20045;-44
2022/08/03 03:24:22;;;;;;;9.70;3.10;;;19.40;99.90;;;;;;5053426;28;20080;-43
2022/08/03 03:26:49;;;;;;;10.60;2.92;;;19.30;99.90;;;;;;5053756;28;20052;-43
2022/08/03 03:29:16;;;;;;;12.10;3.38;;;19.30;99.90;;;;;;5053252;28;20123;-43
2022/08/03 03:31:44;;;;;;;6.82;3.08;;;19.20;99.90;;;;;;5056181;28;20045;-44
2022/08/03 03:34:11;;;;;;;7.57;2.78;;;19.30;99.90;;;;;;5051453;28;20076;-43
2022/08/03 03:36:37;;;;;;;8.48;2.70;;;19.20;99.90;;;;;;5053137;28;20132;-43
2022/08/03 03:39:04;;;;;;;10.95;3.30;;;19.20;99.90;;;;;;5052943;28;20127;-44
2022/08/03 03:41:31;;;;;;;11.65;2.78;;;19.20;99.90;;;;;;5073061;28;20132;-44
2022/08/03 03:43:58;;;;;;;13.68;3.17;;;19.20;99.90;;;;;;5058735;28;20072;-44
2022/08/03 03:46:24;;;;;;;10.13;3.00;;;19.20;99.90;;;;;;5053046;28;20053;-43
2022/08/03 03:48:53;;;;;;;9.65;2.97;;;19.10;99.90;;;;;;5047093;28;20076;-44
2022/08/03 03:51:19;;;;;;;11.30;3.45;;;19.10;99.90;;;;;;5048260;28;20049;-43
2022/08/03 03:53:55;;;;;;;9.27;2.92;;;19.10;99.90;;;;;;5049959;28;20523;-44
2022/08/03 03:56:22;;;;;;;8.80;2.67;;;19.10;99.90;;;;;;5051209;28;20045;-45
2022/08/03 03:58:49;;;;;;;10.75;2.72;;;19.10;99.90;;;;;;5050869;28;20049;-44
2022/08/03 04:01:16;;;;;;;16.67;3.10;;;19.10;99.90;;;;;;5052384;28;20115;-44
2022/08/03 04:03:43;;;;;;;8.65;2.85;;;19.10;99.90;;;;;;5051550;28;20041;-44
2022/08/03 04:11:41;;;;;;;10.75;3.25;;;19.10;99.90;;;;;;5051840;28;20091;-44
2022/08/03 04:14:09;;;;;;;11.65;2.97;;;19.10;99.90;;;;;;5052003;28;20076;-44
2022/08/03 04:16:37;;;;;;;14.30;2.72;;;19.10;99.90;;;;;;5051659;28;20041;-42
2022/08/03 04:19:06;;;;;;;16.30;2.70;;;19.10;99.90;;;;;;5049766;28;20129;-43
2022/08/03 04:21:34;;;;;;;11.20;3.00;;;19.10;99.90;;;;;;5052474;28;20059;-44
2022/08/03 04:24:03;;;;;;;9.88;3.10;;;19.10;99.90;;;;;;5052586;28;20080;-44
2022/08/03 04:26:31;;;;;;;12.38;3.42;;;19.00;99.90;;;;;;5050932;28;20088;-43
2022/08/03 04:28:58;;;;;;;9.27;3.35;;;19.00;99.90;;;;;;5051413;28;20453;-43
2022/08/03 04:31:25;;;;;;;9.43;3.10;;;19.00;99.90;;;;;;5054681;28;20207;-44
2022/08/03 04:33:52;;;;;;;12.40;3.05;;;19.10;99.90;;;;;;5072305;28;20460;-43
2022/08/03 04:36:21;;;;;;;9.98;2.95;;;19.00;99.90;;;;;;5071565;28;20123;-44
2022/08/03 04:38:55;;;;;;;10.55;3.10;;;19.00;99.90;;;;;;5068622;28;20128;-44
2022/08/03 04:41:22;;;;;;;10.63;3.17;;;19.00;99.90;;;;;;5052324;28;20131;-44
2022/08/03 04:43:49;;;;;;;14.38;3.83;;;19.00;99.90;;;;;;5051048;28;20047;-45
2022/08/03 04:46:16;;;;;;;11.88;3.47;;;19.00;99.90;;;;;;5052089;28;20127;-44
2022/08/03 04:48:43;;;;;;;11.23;3.17;;;19.00;99.90;;;;;;5060876;28;20037;-44
2022/08/03 04:51:11;;;;;;;10.88;3.40;;;19.00;99.90;;;;;;5072323;28;20044;-43
2022/08/03 04:53:38;;;;;;;13.18;3.10;;;19.00;99.90;;;;;;5070922;28;20052;-44
2022/08/03 04:56:07;;;;;;;15.45;3.55;;;19.00;99.90;;;;;;5071999;28;20536;-44
2022/08/03 04:58:34;;;;;;;10.00;2.67;;;19.00;99.90;;;;;;5071110;28;20088;-43
2022/08/03 05:01:00;;;;;;;11.38;3.17;;;19.00;99.90;;;;;;5050354;28;20068;-43
2022/08/03 05:03:27;;;;;;;10.70;2.75;;;19.10;99.90;;;;;;5053228;28;20087;-42
2022/08/03 05:05:54;;;;;;;8.35;2.75;;;19.10;99.90;;;;;;5071104;28;20376;-44
2022/08/03 05:08:21;;;;;;;10.45;3.35;;;19.10;99.90;;;;;;5071667;28;20132;-43
2022/08/03 05:10:48;;;;;;;15.70;3.22;;;19.10;99.90;;;;;;5070213;28;20040;-43
2022/08/03 05:13:16;;;;;;;18.83;4.18;;;19.10;99.90;;;;;;5060824;28;20057;-43
2022/08/03 05:15:43;;;;;;;15.45;3.05;;;19.10;99.90;;;;;;5054185;28;20746;-44
2022/08/03 05:18:10;;;;;;;15.82;4.03;;;19.20;99.90;;;;;;5055096;28;20098;-44
2022/08/03 05:20:37;;;;;;;10.73;3.33;;;19.20;99.90;;;;;;5056032;28;21005;-44
2022/08/03 05:23:03;;;;;;;16.15;3.53;;;19.20;99.90;;;;;;5056023;28;20045;-44
2022/08/03 05:25:30;;;;;;;16.23;3.47;;;19.30;99.90;;;;;;5050221;28;20138;-43
2022/08/03 05:27:57;;;;;;;14.98;3.53;;;19.30;99.90;;;;;;5055979;28;20045;-43
2022/08/03 05:30:25;;;;;;;13.27;3.67;;;19.30;99.90;;;;;;5054829;28;20053;-42
2022/08/03 05:32:52;;;;;;;17.33;4.45;;;19.40;99.90;;;;;;5055630;28;20049;-43
2022/08/03 05:35:19;;;;;;;15.45;3.80;;;19.40;99.90;;;;;;5055745;28;20429;-44
2022/08/03 05:37:45;;;;;;;12.15;3.75;;;19.50;99.90;;;;;;5055412;28;20392;-44
2022/08/03 05:40:13;;;;;;;13.15;3.22;;;19.50;99.90;;;;;;5051917;28;20127;-44
2022/08/03 05:42:40;;;;;;;15.75;3.80;;;19.60;99.90;;;;;;5075483;28;20135;-44
2022/08/03 05:45:14;;;;;;;15.15;3.80;;;19.70;99.90;;;;;;5070654;28;20121;-44
2022/08/03 05:47:43;;;;;;;18.00;4.07;;;19.70;99.90;;;;;;5061552;28;20044;-43
2022/08/03 05:50:10;;;;;;;18.10;4.63;;;19.80;99.90;;;;;;5075030;28;20055;-43
2022/08/03 05:52:36;;;;;;;15.27;3.92;;;19.90;99.90;;;;;;5071744;28;20084;-43
2022/08/03 05:55:04;;;;;;;17.20;4.07;;;20.00;99.90;;;;;;5061511;28;20135;-44
2022/08/03 05:57:31;;;;;;;13.77;3.40;;;20.10;99.90;;;;;;5041120;28;20143;-44
2022/08/03 05:59:58;;;;;;;15.10;3.45;;;20.10;99.90;;;;;;5064051;28;20048;-43
2022/08/03 06:02:24;;;;;;;16.08;4.07;;;20.20;99.90;;;;;;5053867;28;20128;-44
2022/08/03 06:04:52;;;;;;;15.50;3.33;;;20.30;99.90;;;;;;5058410;28;20053;-44
2022/08/03 06:07:19;;;;;;;15.95;3.78;;;20.40;99.90;;;;;;5053602;28;20041;-43
2022/08/03 06:09:46;;;;;;;19.40;3.28;;;20.50;99.90;;;;;;5058498;28;20131;-44
2022/08/03 06:12:12;;;;;;;16.13;3.55;;;20.60;99.90;;;;;;5056356;28;20053;-43
2022/08/03 06:14:39;;;;;;;17.42;3.72;;;20.70;99.90;;;;;;5049300;28;20090;-44
2022/08/03 06:17:06;;;;;;;13.70;3.40;;;20.70;99.90;;;;;;5043899;28;20135;-44
2022/08/03 06:19:33;;;;;;;19.35;3.65;;;20.70;99.90;;;;;;5051607;28;20040;-44
2022/08/03 06:22:01;;;;;;;16.70;3.65;;;20.80;99.90;;;;;;5051672;28;20076;-44
2022/08/03 06:24:28;;;;;;;14.20;3.90;;;20.90;99.90;;;;;;5051785;28;20140;-44
2022/08/03 06:26:55;;;;;;;16.02;3.78;;;20.90;99.90;;;;;;5052667;28;20132;-43
2022/08/03 06:29:21;;;;;;;22.38;3.92;;;21.00;99.90;;;;;;5051272;28;20048;-44
2022/08/03 06:31:48;;;;;;;16.00;3.65;;;21.00;99.90;;;;;;5052412;28;20103;-44
2022/08/03 06:34:15;;;;;;;16.42;4.32;;;21.00;99.90;;;;;;5054204;28;20044;-43
2022/08/03 06:36:42;;;;;;;23.40;4.38;;;21.10;99.90;;;;;;5065232;28;20475;-44
2022/08/03 06:39:11;;;;;;;16.48;3.92;;;21.10;99.90;;;;;;5058058;28;20544;-44
2022/08/03 06:41:38;;;;;;;16.55;4.18;;;21.20;99.90;;;;;;5072696;28;20476;-44
2022/08/03 06:44:05;;;;;;;21.58;3.85;;;21.20;99.90;;;;;;5032479;28;20548;-41
2022/08/03 06:46:32;;;;;;;12.32;3.70;;;21.20;99.90;;;;;;5049673;28;20055;-44
2022/08/03 06:48:58;;;;;;;12.02;3.47;;;21.30;99.90;;;;;;5051104;28;20069;-43
2022/08/03 06:51:25;;;;;;;16.52;4.38;;;21.30;99.90;;;;;;5051806;28;20092;-43
2022/08/03 06:53:52;;;;;;;15.85;3.72;;;21.40;99.90;;;;;;5050714;28;20463;-42
2022/08/03 06:56:21;;;;;;;19.42;3.88;;;21.50;99.90;;;;;;5066749;28;20045;-44
2022/08/03 06:58:47;;;;;;;16.92;4.40;;;21.60;99.90;;;;;;5066446;28;20049;-44
2022/08/03 07:01:14;;;;;;;21.65;4.57;;;21.70;99.90;;;;;;5067127;28;20053;-44
2022/08/03 07:03:41;;;;;;;22.60;4.10;;;21.60;99.90;;;;;;5058645;28;20083;-43
2022/08/03 07:06:08;;;;;;;16.83;4.45;;;21.80;99.90;;;;;;5052322;28;20743;-44
2022/08/03 07:08:34;;;;;;;17.98;4.03;;;21.90;99.90;;;;;;5051766;28;20055;-44
2022/08/03 07:11:01;;;;;;;18.92;3.65;;;22.00;99.90;;;;;;5051663;28;20041;-44
2022/08/03 07:13:29;;;;;;;17.65;3.80;;;22.00;99.90;;;;;;5021493;28;1062360;-44
2022/08/03 07:15:56;;;;;;;14.27;3.55;;;22.10;99.90;;;;;;5047434;28;20484;-44
2022/08/03 07:18:23;;;;;;;18.20;4.00;;;22.10;99.90;;;;;;5051583;28;20053;-44
2022/08/03 07:20:49;;;;;;;18.40;4.03;;;22.10;99.90;;;;;;5051894;28;20049;-44
2022/08/03 07:23:16;;;;;;;19.42;4.00;;;22.20;99.90;;;;;;5052212;28;20076;-44
2022/08/03 07:25:43;;;;;;;19.33;4.00;;;22.30;99.90;;;;;;5039196;28;20137;-42
2022/08/03 07:28:10;;;;;;;16.77;3.75;;;22.40;99.90;;;;;;5033295;28;20052;-43
2022/08/03 07:30:38;;;;;;;18.52;3.92;;;22.50;99.90;;;;;;5033153;28;20095;-45
2022/08/03 07:33:05;;;;;;;16.13;4.20;;;22.60;99.90;;;;;;5058946;28;20049;-44
2022/08/03 07:35:31;;;;;;;21.50;4.63;;;22.70;99.90;;;;;;5055761;28;20139;-43
2022/08/03 07:37:58;;;;;;;21.67;4.60;;;22.80;99.90;;;;;;5066783;28;20045;-43
2022/08/03 07:40:25;;;;;;;26.58;4.30;;;22.80;99.90;;;;;;5072036;28;20487;-43
2022/08/03 07:42:52;;;;;;;18.30;4.75;;;22.90;99.90;;;;;;5072956;28;20079;-43
2022/08/03 07:45:20;;;;;;;20.50;3.88;;;23.00;99.90;;;;;;5065146;28;20627;-43
2022/08/03 07:47:48;;;;;;;15.20;3.92;;;23.10;99.90;;;;;;5069320;28;20044;-43
2022/08/03 07:50:15;;;;;;;24.60;4.60;;;23.20;99.90;;;;;;5070536;28;20052;-44
2022/08/03 07:52:52;;;;;;;13.77;3.22;;;23.30;99.90;;;;;;5049778;28;20128;-43
2022/08/03 07:55:19;;;;;;;19.55;3.88;;;23.50;99.90;;;;;;5056251;28;20111;-43
2022/08/03 07:57:46;;;;;;;20.33;4.78;;;23.70;99.90;;;;;;5052324;28;20515;-43
2022/08/03 08:00:14;;;;;;;21.40;3.50;;;23.80;99.90;;;;;;5051644;28;20414;-44
2022/08/03 08:02:41;;;;;;;21.42;4.47;;;24.00;99.90;;;;;;5051085;28;20102;-43
2022/08/03 08:05:09;;;;;;;24.25;4.05;;;24.10;99.90;;;;;;5055534;28;20216;-43
2022/08/03 08:07:36;;;;;;;19.60;3.90;;;24.30;99.70;;;;;;5040860;28;20045;-43
2022/08/03 08:10:04;;;;;;;21.27;4.10;;;24.40;99.40;;;;;;5060420;28;20401;-44
2022/08/03 08:12:30;;;;;;;16.10;3.30;;;24.60;99.10;;;;;;5062588;28;20131;-43
2022/08/03 08:14:57;;;;;;;18.27;3.78;;;24.70;98.60;;;;;;5051903;28;20084;-44
2022/08/03 08:17:24;;;;;;;18.65;3.80;;;24.80;98.40;;;;;;5070784;28;20080;-43
2022/08/03 08:19:50;;;;;;;19.17;3.80;;;24.90;98.10;;;;;;5067312;28;20116;-44
2022/08/03 08:22:19;;;;;;;24.02;4.20;;;25.00;97.90;;;;;;5071204;28;20436;-43
2022/08/03 08:24:47;;;;;;;19.15;4.20;;;25.20;97.60;;;;;;5069952;28;20040;-43
2022/08/03 08:27:14;;;;;;;22.95;4.35;;;25.40;97.20;;;;;;5070970;28;20059;-43
2022/08/03 08:29:41;;;;;;;15.20;4.03;;;25.40;96.70;;;;;;5065594;28;20508;-43
2022/08/03 08:32:10;;;;;;;19.70;3.55;;;25.30;96.60;;;;;;5057112;28;20055;-43
2022/08/03 08:34:36;;;;;;;17.17;3.33;;;25.30;96.60;;;;;;5051794;28;20048;-43
2022/08/03 08:37:03;;;;;;;26.35;4.05;;;25.30;96.80;;;;;;5065848;28;20124;-44
2022/08/03 08:39:31;;;;;;;19.20;4.00;;;25.30;96.50;;;;;;5072009;28;20044;-44
2022/08/03 08:41:58;;;;;;;19.48;4.05;;;25.40;96.20;;;;;;5067269;28;20076;-43
2022/08/03 08:44:25;;;;;;;19.80;3.85;;;25.50;96.30;;;;;;5057363;28;20049;-43
2022/08/03 08:46:52;;;;;;;17.35;3.75;;;25.60;96.30;;;;;;5039463;28;20056;-44
2022/08/03 08:49:18;;;;;;;16.40;4.13;;;25.80;96.40;;;;;;5055531;28;20135;-43
2022/08/03 08:51:45;;;;;;;23.48;4.65;;;25.80;96.10;;;;;;5071762;28;20139;-44
2022/08/03 08:54:12;;;;;;;18.13;4.07;;;25.90;95.50;;;;;;5071881;28;20044;-44
2022/08/03 08:56:40;;;;;;;15.57;4.03;;;26.00;95.40;;;;;;5071654;28;20053;-44
2022/08/03 08:59:07;;;;;;;21.98;4.43;;;26.10;95.20;;;;;;5071982;28;20132;-43
2022/08/03 09:01:34;;;;;;;17.85;3.45;;;26.30;95.20;;;;;;5066995;28;20516;-44
2022/08/03 09:04:01;;;;;;;15.98;4.20;;;26.30;95.10;;;;;;5066257;28;20087;-44
2022/08/03 09:06:27;;;;;;;14.40;3.53;;;26.50;94.80;;;;;;5071797;28;20044;-44
2022/08/03 09:08:54;;;;;;;19.00;4.07;;;26.60;94.80;;;;;;5053587;28;20145;-44
2022/08/03 09:11:22;;;;;;;15.75;3.10;;;26.80;94.50;;;;;;5051657;28;20469;-44
2022/08/03 09:13:50;;;;;;;11.98;3.60;;;26.90;94.50;;;;;;5051218;28;20053;-44
2022/08/03 09:16:18;;;;;;;17.00;3.60;;;27.10;94.00;;;;;;5049789;28;20382;-44
2022/08/03 09:18:45;;;;;;;17.50;3.75;;;27.20;94.00;;;;;;5050609;28;20120;-43
2022/08/03 09:21:13;;;;;;;18.90;3.97;;;27.30;94.00;;;;;;5051802;28;20476;-43
2022/08/03 09:23:44;;;;;;;16.75;3.65;;;27.60;93.30;;;;;;5050019;28;20049;-44
2022/08/03 09:26:11;;;;;;;13.85;3.20;;;27.60;93.00;;;;;;5055832;28;20048;-44
2022/08/03 09:28:38;;;;;;;19.73;3.45;;;27.70;92.90;;;;;;5065958;28;20048;-43
2022/08/03 09:31:06;;;;;;;22.85;3.63;;;27.90;93.00;;;;;;5047683;28;20459;-43
2022/08/03 09:33:33;;;;;;;18.30;3.45;;;28.00;92.30;;;;;;5049701;28;20083;-44
2022/08/03 09:35:59;;;;;;;12.85;3.60;;;28.10;92.30;;;;;;5049883;28;20128;-44
2022/08/03 09:38:26;;;;;;;13.25;3.28;;;28.30;92.40;;;;;;5061820;28;20444;-44
2022/08/03 09:40:53;;;;;;;14.65;3.20;;;28.40;91.80;;;;;;5059836;28;20055;-44
2022/08/03 09:43:20;;;;;;;15.20;3.20;;;28.50;91.60;;;;;;5049763;28;20087;-44
2022/08/03 09:45:47;;;;;;;12.52;2.95;;;28.70;91.10;;;;;;5048179;28;20049;-44
2022/08/03 09:48:22;;;;;;;12.10;3.35;;;28.80;91.20;;;;;;5045590;28;20066;-44
2022/08/03 09:50:49;;;;;;;18.63;2.90;;;28.90;90.90;;;;;;5030191;28;20111;-44
2022/08/03 09:53:17;;;;;;;13.00;2.72;;;29.00;90.60;;;;;;5034754;28;20496;-44
2022/08/03 09:55:50;;;;;;;17.25;3.10;;;29.10;90.10;;;;;;5048029;28;20041;-45
2022/08/03 09:58:17;;;;;;;14.57;2.78;;;29.20;90.00;;;;;;5047283;28;20076;-45
2022/08/03 10:00:54;;;;;;;14.50;2.97;;;29.20;89.40;;;;;;5041501;28;20400;-44
2022/08/03 10:03:22;;;;;;;19.35;3.50;;;29.40;90.10;;;;;;5054594;28;20080;-45
2022/08/03 10:05:49;;;;;;;18.70;3.88;;;29.40;89.10;;;;;;5053605;28;20048;-45
2022/08/03 10:08:17;;;;;;;17.38;2.95;;;29.50;88.10;;;;;;5057520;28;20047;-45
2022/08/03 10:10:44;;;;;;;20.50;3.60;;;29.50;88.00;;;;;;5072014;28;20120;-45
2022/08/03 10:13:11;;;;;;;15.43;3.40;;;29.60;88.10;;;;;;5072928;28;20438;-45
2022/08/03 10:15:38;;;;;;;13.35;3.42;;;29.60;87.40;;;;;;5070295;28;20044;-45
2022/08/03 10:18:06;;;;;;;15.05;2.92;;;29.60;87.00;;;;;;5056452;28;20155;-45
2022/08/03 10:20:36;;;;;;;16.50;3.28;;;29.70;87.70;;;;;;5074580;28;20044;-42
2022/08/03 10:23:03;;;;;;;;;;;29.80;86.50;;;;;;5074822;28;20047;-44
2022/08/03 10:25:30;;;;;;;16.05;3.53;;;29.90;87.10;;;;;;5065028;28;19917;-44
2022/08/03 10:27:57;;;;;;;14.90;2.92;;;30.00;86.20;;;;;;5064311;28;20040;-44
2022/08/03 10:30:23;;;;;;;17.98;3.25;;;30.10;84.80;;;;;;5058525;28;20371;-48
2022/08/03 10:32:52;;;;;;;21.65;4.20;;;30.10;84.70;;;;;;5063491;28;20113;-44
2022/08/03 10:35:19;;;;;;;17.95;3.35;;;30.10;84.60;;;;;;5049108;28;20057;-44
2022/08/03 10:37:51;;;;;;;18.85;3.95;;;30.30;84.60;;;;;;5053197;28;20123;-43
2022/08/03 10:40:19;;;;;;;14.70;3.08;;;30.40;83.50;;;;;;5051706;28;20140;-44
2022/08/03 10:42:46;;;;;;;19.40;3.42;;;30.60;83.60;;;;;;5051008;28;20106;-44
2022/08/03 10:45:17;;;;;;;19.88;3.60;;;30.80;81.90;;;;;;5053399;28;20049;-44
2022/08/03 10:47:44;;;;;;;;;;;30.80;80.90;;;;;;5063058;28;20127;-44
2022/08/03 10:50:11;;;;;;;15.73;3.38;;;30.90;83.00;;;;;;5055536;28;19943;-44
2022/08/03 10:52:55;;;;;;;17.48;3.25;;;31.00;80.40;;;;;;5058187;28;20131;-44
2022/08/03 10:58:16;;;;;;;16.80;3.65;;;31.30;78.60;;;;;;5053390;28;20481;-44
2022/08/03 11:00:49;;;;;;;20.77;3.28;;;31.10;78.70;;;;;;5045680;28;20109;-43
2022/08/03 11:03:16;;;;;;;17.75;3.65;;;31.10;79.60;;;;;;5054482;28;20128;-44
2022/08/03 11:05:43;;;;;;;15.30;3.47;;;31.20;79.30;;;;;;5072148;28;20041;-44
2022/08/03 11:08:27;;;;;;;18.88;3.17;;;31.30;77.90;;;;;;5057118;28;20044;-44
2022/08/03 11:10:55;;;;;;;15.50;3.67;;;31.40;77.70;;;;;;5033861;28;20424;-44
2022/08/03 11:13:23;;;;;;;20.27;3.53;;;31.30;76.90;;;;;;5060135;28;20072;-44
2022/08/03 11:15:51;;;;;;;30.40;3.97;;;31.20;75.40;;;;;;5061380;28;20482;-43
2022/08/03 11:18:18;;;;;;;21.92;3.40;;;31.00;75.20;;;;;;5073979;28;20053;-44
2022/08/03 11:20:46;;;;;;;17.13;3.38;;;30.90;75.80;;;;;;5056134;28;20077;-44
2022/08/03 11:23:13;;;;;;;20.67;3.50;;;30.90;76.60;;;;;;5063888;28;20051;-44
2022/08/03 11:26:12;;;;;;;13.88;3.42;;;31.00;76.80;;;;;;5061533;28;20048;-45
2022/08/03 11:28:39;;;;;;;20.23;3.65;;;31.10;77.00;;;;;;5050973;28;20076;-46
2022/08/03 11:31:43;;;;;;;17.30;3.00;;;31.30;76.00;;;;;;5053502;28;20136;-44
2022/08/03 11:34:11;;;;;;;19.55;4.28;;;31.50;76.30;;;;;;5073218;28;20392;-44
2022/08/03 11:37:11;;;;;;;21.67;4.10;;;31.70;76.20;;;;;;5053176;28;20120;-45
2022/08/03 11:39:39;;;;;;;20.08;3.95;;;31.90;74.50;;;;;;5054040;28;20051;-44
2022/08/03 11:42:40;;;;;;;21.35;3.70;;;32.00;73.80;;;;;;5054254;28;20132;-45
2022/08/03 11:45:10;;;;;;;16.65;3.38;;;32.20;74.60;;;;;;5051163;28;20041;-44
2022/08/03 11:47:38;;;;;;;19.15;4.43;;;32.30;72.90;;;;;;5066343;28;20135;-45
2022/08/03 11:50:05;;;;;;;18.90;3.78;;;32.30;71.60;;;;;;5069691;28;20094;-44
2022/08/03 11:52:35;;;;;;;20.60;4.25;;;32.30;70.40;;;;;;5052512;28;20052;-45
2022/08/03 11:55:01;;;;;;;21.38;3.75;;;32.50;70.30;;;;;;5052808;28;20045;-45
2022/08/03 11:57:31;;;;;;;18.95;4.05;;;32.60;70.30;;;;;;5053734;28;20080;-45
2022/08/03 11:59:59;;;;;;;24.50;3.78;;;32.60;70.20;;;;;;5052235;28;20140;-43
2022/08/03 12:02:26;;;;;;;17.55;3.53;;;32.70;70.40;;;;;;5042264;28;20048;-44
2022/08/03 12:04:53;;;;;;;18.95;3.80;;;32.90;68.60;;;;;;5056245;28;20124;-43
2022/08/03 12:07:20;;;;;;;18.23;3.30;;;33.00;69.00;;;;;;5052834;28;20080;-44
2022/08/03 12:10:07;;;;;;;22.42;4.07;;;33.10;66.90;;;;;;5052130;28;20040;-45
2022/08/03 12:12:34;;;;;;;19.45;3.45;;;33.10;67.60;;;;;;5053325;28;20084;-44
2022/08/03 12:15:02;;;;;;;14.93;3.85;;;33.20;67.10;;;;;;5057367;28;20480;-44
2022/08/03 12:17:33;;;;;;;15.52;4.10;;;33.30;66.30;;;;;;5052247;28;20544;-44
2022/08/03 12:20:00;;;;;;;;;;;33.30;65.80;;;;;;5051551;28;20473;-44
2022/08/03 12:22:32;;;;;;;17.67;3.67;;;33.20;68.00;;;;;;5053200;28;19986;-44
2022/08/03 12:24:59;;;;;;;19.67;3.42;;;33.30;66.90;;;;;;5051245;28;20049;-45
2022/08/03 12:27:28;;;;;;;18.98;3.70;;;33.40;65.20;;;;;;5052944;28;20135;-44
2022/08/03 12:29:55;;;;;;;13.02;3.10;;;33.40;64.30;;;;;;5065263;28;20052;-44
2022/08/03 12:32:24;;;;;;;21.50;3.33;;;33.40;64.40;;;;;;5073112;28;20127;-44
2022/08/03 12:34:51;;;;;;;15.13;3.20;;;33.50;63.70;;;;;;5071183;28;20052;-44
2022/08/03 12:37:19;;;;;;;12.20;2.80;;;33.50;63.30;;;;;;5054702;28;20055;-44
2022/08/03 12:39:49;;;;;;;15.38;3.50;;;33.50;62.20;;;;;;5050832;28;20540;-44
2022/08/03 12:42:21;;;;;;;15.80;3.03;;;33.50;61.60;;;;;;5051615;28;20125;-44
2022/08/03 12:44:49;;;;;;;16.67;2.90;;;33.50;62.70;;;;;;5052174;28;20131;-45
2022/08/03 12:47:16;;;;;;;16.52;3.97;;;33.60;61.10;;;;;;5053366;28;20414;-45
2022/08/03 12:49:47;;;;;;;13.93;3.25;;;33.60;60.20;;;;;;5052621;28;20451;-45
2022/08/03 12:52:14;;;;;;;17.70;3.45;;;33.70;60.80;;;;;;5052413;28;20053;-45
2022/08/03 12:54:41;;;;;;;16.38;2.75;;;33.90;59.80;;;;;;5057581;28;20137;-45